Impacts METAR Board
IDs:

KPHX - Phoenix/Sky Harbor, AZ, US

Updated at: 1100 UTC 30 Oct 2020
Potential Impact None Slight Moderate High
Time 29/23Z 30/00Z 30/01Z 30/02Z 30/03Z 30/04Z 30/05Z 30/06Z 30/07Z 30/08Z 30/09Z 30/10Z 30/11Z
Temp83 83 81 79 73 71 70 68 65 64 62 63 61
Dewpt29 30 29 30 31 31 32 33 34 34 34 34 35
Altim29.97 29.96 29.95 29.97 29.98 29.99 30.00 30.00 30.00 30.00 30.00 29.99 29.99
VIS10 10 10 10 10 10 10 10 10 10 10 10 10
CIG-- -- -- -- -- -- -- -- 250 -- -- -- --
CoverFEWFEWFEWCLRCLRFEWFEWSCTBKNSCTSCTSCTSCT
FltCatVFRVFRVFRVFRVFRVFRVFRVFRVFRVFRVFRVFRVFR
WX--------------------------
WDir4070070100120130000140110130
WSpd4 4 0 7 4 3 3 0 0 0 3 5 3
WGst-- -- -- -- -- -- -- -- -- -- -- -- --
Raw hourly METARs
KPHX 292251Z 04004KT 10SM R07L/6000VP6000FT FEW180 FEW220 FEW250 28/M02 A2997 RMK AO2 SLP135 T02831017
KPHX 292351Z 07004KT 10SM R07L/1000VP6000FT FEW180 FEW220 FEW250 28/M01 A2996 RMK AO2 SLP133 T02831011 10294 20239 56015
KPHX 300051Z 00000KT 10SM FEW180 FEW220 FEW250 27/M02 A2995 RMK AO2 SLP132 T02721017
KPHX 300151Z 07007KT 10SM CLR 26/M01 A2997 RMK AO2 SLP136 T02611011
KPHX 300251Z 10004KT 10SM CLR 23/M01 A2998 RMK AO2 SLP140 T02281006 53006
KPHX 300351Z 12003KT 10SM FEW220 22/M01 A2999 RMK AO2 SLP143 T02171006
KPHX 300451Z 13003KT 10SM FEW220 21/00 A3000 RMK AO2 SLP146 T02110000
KPHX 300551Z 00000KT 10SM FEW180 SCT250 20/01 A3000 RMK AO2 SLP147 T02000006 10283 20189 51009
KPHX 300651Z 00000KT 10SM FEW180 BKN250 18/01 A3000 RMK AO2 SLP145 T01830011 402940117
KPHX 300751Z 00000KT 10SM FEW180 SCT250 18/01 A3000 RMK AO2 SLP146 T01780011
KPHX 300851Z 14003KT 10SM FEW180 SCT250 17/01 A3000 RMK AO2 SLP145 T01670011 56002
KPHX 300951Z 11005KT 10SM FEW180 SCT250 17/01 A2999 RMK AO2 SLP143 T01720011
KPHX 301051Z 13003KT 10SM FEW180 SCT250 16/02 A2999 RMK AO2 SLP142 T01610017



Page loaded:  11:19 UTC  |   04:19 AM Pacific  |   05:19 AM Mountain  |   06:19 AM Central  |   07:19 AM Eastern

 

ADVISORIES

FORECASTS

FORECASTS

OBSERVATIONS

USER TOOLS

ABOUT US